Time;durP1;ratioP1;P1;durP2;ratioP2;P2;SDS_P1;SDS_P2;PMS_P1;PMS_P2;Temp;Humidity;BMP_temperature;BMP_pressure;BME280_temperature;BME280_humidity;BME280_pressure;Samples;Min_cycle;Max_cycle;Signal;HPM_P1;HPM_P2
2022/01/02 00:00:01;;;;;;;27.77;7.13;;;;;;;;;;5021099;28;20310;-48
2022/01/02 00:02:29;;;;;;;38.87;9.80;;;;;;;;;;5011061;28;20660;-48
2022/01/02 00:05:01;;;;;;;51.30;12.03;;;;;;;;;;5003306;28;20672;-48
2022/01/02 00:07:30;;;;;;;22.23;6.53;;;;;;;;;;5013565;28;20216;-48
2022/01/02 00:09:56;;;;;;;32.97;8.90;;;;;;;;;;5010953;28;20183;-48
2022/01/02 00:12:26;;;;;;;44.07;11.20;;;;;;;;;;5010615;28;20261;-48
2022/01/02 00:14:54;;;;;;;26.47;7.53;;;;;;;;;;5004689;28;20185;-48
2022/01/02 00:17:23;;;;;;;29.03;8.13;;;;;;;;;;5006577;28;20180;-48
2022/01/02 00:19:53;;;;;;;47.53;11.70;;;;;;;;;;5002630;28;20203;-48
2022/01/02 00:22:24;;;;;;;19.13;5.93;;;;;;;;;;5010802;28;20200;-48
2022/01/02 00:24:50;;;;;;;43.93;11.47;;;;;;;;;;4999962;28;20251;-48
2022/01/02 00:27:16;;;;;;;22.83;6.70;;;;;;;;;;5008376;28;20727;-48
2022/01/02 00:29:43;;;;;;;42.13;10.20;;;;;;;;;;5012006;28;20572;-48
2022/01/02 00:32:10;;;;;;;40.90;10.27;;;;;;;;;;5006859;28;20600;-48
2022/01/02 00:34:36;;;;;;;46.67;11.83;;;;;;;;;;4998614;28;20189;-48
2022/01/02 00:37:02;;;;;;;32.83;8.97;;;;;;;;;;5005075;28;20246;-48
2022/01/02 00:39:28;;;;;;;36.53;9.17;;;;;;;;;;5009556;28;20181;-48
2022/01/02 00:41:57;;;;;;;41.93;10.67;;;;;;;;;;5002913;28;20863;-48
2022/01/02 00:44:41;;;;;;;22.00;6.67;;;;;;;;;;5008077;28;20191;-48
2022/01/02 00:47:13;;;;;;;37.00;9.63;;;;;;;;;;5007521;28;20232;-48
2022/01/02 00:49:45;;;;;;;24.17;7.47;;;;;;;;;;5008304;28;20193;-48
2022/01/02 00:52:15;;;;;;;48.37;11.73;;;;;;;;;;5006723;28;20211;-48
2022/01/02 00:54:43;;;;;;;23.43;6.83;;;;;;;;;;5000024;28;20187;-48
2022/01/02 00:57:13;;;;;;;45.50;11.67;;;;;;;;;;5011778;28;20185;-48
2022/01/02 00:59:59;;;;;;;27.23;7.83;;;;;;;;;;5011258;28;20195;-48
2022/01/02 01:02:33;;;;;;;47.33;11.87;;;;;;;;;;5009729;28;20298;-48
2022/01/02 01:05:01;;;;;;;41.73;10.90;;;;;;;;;;5008594;28;20590;-48
2022/01/02 01:07:27;;;;;;;29.53;8.20;;;;;;;;;;5011206;28;20251;-48
2022/01/02 01:09:56;;;;;;;37.03;9.57;;;;;;;;;;5012354;28;20195;-48
2022/01/02 01:12:23;;;;;;;34.87;8.90;;;;;;;;;;5008381;28;20219;-48
2022/01/02 01:14:50;;;;;;;31.20;8.80;;;;;;;;;;5005603;28;20238;-48
2022/01/02 01:17:17;;;;;;;25.03;7.50;;;;;;;;;;5011861;28;20651;-48
2022/01/02 01:19:43;;;;;;;34.93;9.20;;;;;;;;;;5000166;28;20212;-49
2022/01/02 01:22:09;;;;;;;40.73;10.57;;;;;;;;;;5008051;28;20250;-48
2022/01/02 01:24:36;;;;;;;50.10;12.60;;;;;;;;;;5008703;28;20691;-48
2022/01/02 01:27:08;;;;;;;27.53;8.00;;;;;;;;;;5008797;28;20234;-48
2022/01/02 01:29:35;;;;;;;27.87;7.63;;;;;;;;;;5003753;28;20599;-48
2022/01/02 01:32:08;;;;;;;28.23;7.87;;;;;;;;;;5009163;28;20681;-48
2022/01/02 01:34:34;;;;;;;39.73;10.53;;;;;;;;;;5005349;28;20266;-48
2022/01/02 01:37:00;;;;;;;38.50;9.93;;;;;;;;;;5009127;28;20276;-48
2022/01/02 01:39:26;;;;;;;41.30;10.60;;;;;;;;;;5009394;28;21001;-48
2022/01/02 01:41:54;;;;;;;29.47;7.97;;;;;;;;;;5010309;28;20207;-49
2022/01/02 01:44:27;;;;;;;36.93;9.73;;;;;;;;;;5002954;28;20664;-48
2022/01/02 01:46:55;;;;;;;28.43;7.87;;;;;;;;;;5012182;28;20410;-48
2022/01/02 01:49:21;;;;;;;32.10;8.63;;;;;;;;;;5006692;28;20227;-48
2022/01/02 01:51:48;;;;;;;22.83;6.97;;;;;;;;;;5006917;28;20319;-48
2022/01/02 01:54:14;;;;;;;31.13;8.13;;;;;;;;;;5011677;28;20224;-48
2022/01/02 01:56:41;;;;;;;31.67;8.50;;;;;;;;;;5013173;28;20355;-48
2022/01/02 01:59:07;;;;;;;44.13;11.40;;;;;;;;;;5015946;28;20188;-48
2022/01/02 02:01:33;;;;;;;37.43;9.30;;;;;;;;;;5006807;28;20193;-48
2022/01/02 02:03:59;;;;;;;42.37;10.83;;;;;;;;;;5013975;28;21580;-48
2022/01/02 02:06:26;;;;;;;42.43;10.73;;;;;;;;;;5013646;28;20187;-48
2022/01/02 02:08:54;;;;;;;27.07;7.20;;;;;;;;;;5014959;28;20204;-48
2022/01/02 02:11:21;;;;;;;36.37;9.60;;;;;;;;;;5012024;28;20255;-48
2022/01/02 02:13:47;;;;;;;37.77;9.80;;;;;;;;;;5014732;28;20694;-49
2022/01/02 02:16:13;;;;;;;29.43;7.53;;;;;;;;;;5016762;28;20180;-48
2022/01/02 02:18:39;;;;;;;25.17;6.70;;;;;;;;;;5008405;28;20254;-49
2022/01/02 02:21:05;;;;;;;22.73;6.33;;;;;;;;;;5016817;28;20200;-48
2022/01/02 02:23:31;;;;;;;44.73;11.63;;;;;;;;;;5011186;28;20656;-48
2022/01/02 02:25:57;;;;;;;40.50;9.87;;;;;;;;;;5014569;28;20228;-48
2022/01/02 02:28:28;;;;;;;51.37;12.87;;;;;;;;;;5006011;28;20200;-48
2022/01/02 02:30:55;;;;;;;41.03;9.97;;;;;;;;;;5011802;28;20224;-48
2022/01/02 02:33:21;;;;;;;59.50;14.17;;;;;;;;;;5008960;28;20197;-48
2022/01/02 02:35:48;;;;;;;34.57;9.20;;;;;;;;;;5016805;28;20846;-48
2022/01/02 02:38:14;;;;;;;35.27;9.13;;;;;;;;;;5010431;28;20223;-48
2022/01/02 02:40:41;;;;;;;35.93;9.23;;;;;;;;;;5012188;28;20180;-48
2022/01/02 02:51:14;;;;;;;28.33;7.80;;;;;;;;;;5013893;28;20343;-48
2022/01/02 02:53:41;;;;;;;41.47;10.30;;;;;;;;;;5009086;28;20240;-48
2022/01/02 02:56:23;;;;;;;34.27;9.13;;;;;;;;;;5014776;28;20648;-48
2022/01/02 02:58:50;;;;;;;45.60;11.57;;;;;;;;;;5010451;28;20651;-48
2022/01/02 03:01:18;;;;;;;36.67;9.77;;;;;;;;;;5012659;28;20275;-48
2022/01/02 03:03:44;;;;;;;44.07;10.87;;;;;;;;;;5000554;28;20244;-48
2022/01/02 03:06:11;;;;;;;35.73;9.27;;;;;;;;;;5014947;28;20521;-48
2022/01/02 03:08:37;;;;;;;30.00;8.23;;;;;;;;;;5013169;28;20223;-48
2022/01/02 03:11:04;;;;;;;35.30;9.30;;;;;;;;;;5010160;28;20208;-49
2022/01/02 03:13:30;;;;;;;52.07;12.57;;;;;;;;;;5008005;28;20205;-48
2022/01/02 03:15:56;;;;;;;28.70;8.13;;;;;;;;;;5014835;28;20567;-48
2022/01/02 03:18:22;;;;;;;37.10;10.23;;;;;;;;;;5014682;28;20181;-48
2022/01/02 03:20:47;;;;;;;32.60;8.73;;;;;;;;;;5009702;28;20608;-48
2022/01/02 03:23:13;;;;;;;39.90;10.17;;;;;;;;;;5014612;28;20253;-48
2022/01/02 03:25:39;;;;;;;38.17;9.43;;;;;;;;;;5011000;28;20280;-48
2022/01/02 03:28:05;;;;;;;38.37;9.60;;;;;;;;;;5011914;28;20192;-48
2022/01/02 03:30:31;;;;;;;42.73;10.63;;;;;;;;;;5007677;28;20208;-48
2022/01/02 03:32:57;;;;;;;65.80;15.87;;;;;;;;;;5011278;28;20631;-48
2022/01/02 03:35:23;;;;;;;36.03;9.53;;;;;;;;;;5007497;28;20275;-48
2022/01/02 03:37:50;;;;;;;42.83;10.90;;;;;;;;;;5011156;28;20720;-48
2022/01/02 03:40:16;;;;;;;29.43;7.87;;;;;;;;;;5012486;28;20625;-48
2022/01/02 03:42:42;;;;;;;43.60;9.13;;;;;;;;;;5050069;23;20235;-48
2022/01/02 03:45:09;;;;;;;35.50;7.47;;;;;;;;;;5035181;28;20180;-48
2022/01/02 03:47:35;;;;;;;33.83;7.27;;;;;;;;;;5034862;28;20176;-51
2022/01/02 03:50:03;;;;;;;35.60;7.40;;;;;;;;;;5025687;28;20517;-51
2022/01/02 03:52:29;;;;;;;21.53;4.80;;;;;;;;;;5032250;28;20213;-51
2022/01/02 03:54:55;;;;;;;15.40;3.70;;;;;;;;;;5027684;28;20562;-51
2022/01/02 03:57:20;;;;;;;28.23;6.10;;;;;;;;;;5036743;28;20196;-51
2022/01/02 03:59:46;;;;;;;37.47;7.83;;;;;;;;;;5036112;28;20176;-51
2022/01/02 04:02:12;;;;;;;51.70;10.77;;;;;;;;;;5034221;28;20269;-51
2022/01/02 04:04:38;;;;;;;31.63;6.77;;;;;;;;;;5032485;28;20258;-51
2022/01/02 04:07:04;;;;;;;22.57;5.17;;;;;;;;;;5038008;28;20190;-51
2022/01/02 04:09:31;;;;;;;38.17;8.10;;;;;;;;;;5044352;28;20256;-53
2022/01/02 04:11:57;;;;;;;35.40;7.57;;;;;;;;;;5036224;28;20212;-53
2022/01/02 04:14:23;;;;;;;36.70;7.70;;;;;;;;;;5038230;28;20181;-53
2022/01/02 04:16:48;;;;;;;32.37;7.13;;;;;;;;;;5036966;28;20191;-53
2022/01/02 04:19:14;;;;;;;25.63;5.60;;;;;;;;;;5035386;28;20270;-53
2022/01/02 04:21:40;;;;;;;30.63;6.60;;;;;;;;;;5031223;28;20678;-53
2022/01/02 04:24:06;;;;;;;36.13;7.60;;;;;;;;;;5041760;28;20190;-53
2022/01/02 04:26:32;;;;;;;25.70;5.90;;;;;;;;;;5035068;28;20183;-53
2022/01/02 04:28:58;;;;;;;31.47;6.67;;;;;;;;;;5032587;28;20549;-53
2022/01/02 04:31:24;;;;;;;35.53;7.70;;;;;;;;;;5036063;28;20216;-53
2022/01/02 04:33:50;;;;;;;22.87;4.87;;;;;;;;;;5033777;28;20235;-53
2022/01/02 04:36:16;;;;;;;26.00;5.70;;;;;;;;;;5038993;28;20190;-53
2022/01/02 04:38:43;;;;;;;26.70;5.60;;;;;;;;;;5035267;28;20188;-53
2022/01/02 04:41:10;;;;;;;33.93;7.20;;;;;;;;;;5037503;28;20670;-53
2022/01/02 04:43:36;;;;;;;35.90;7.70;;;;;;;;;;5027290;28;20204;-53
2022/01/02 04:46:02;;;;;;;30.23;6.47;;;;;;;;;;5020925;28;20194;-53
2022/01/02 04:48:28;;;;;;;40.93;8.63;;;;;;;;;;5037399;28;20183;-53
2022/01/02 04:50:53;;;;;;;26.57;5.97;;;;;;;;;;5028456;28;20215;-53
2022/01/02 04:53:21;;;;;;;70.40;14.33;;;;;;;;;;5024825;28;20216;-53
2022/01/02 04:55:47;;;;;;;23.47;5.20;;;;;;;;;;5034455;28;20188;-53
2022/01/02 04:58:13;;;;;;;30.27;6.43;;;;;;;;;;5034616;28;20252;-53
2022/01/02 05:00:39;;;;;;;29.57;6.30;;;;;;;;;;5031879;28;20184;-53
2022/01/02 05:03:05;;;;;;;45.77;9.87;;;;;;;;;;5029348;28;20207;-53
2022/01/02 05:05:31;;;;;;;31.93;6.70;;;;;;;;;;5034955;28;20178;-53
2022/01/02 05:07:57;;;;;;;46.20;9.47;;;;;;;;;;5019173;28;20342;-53
2022/01/02 05:10:23;;;;;;;20.27;4.40;;;;;;;;;;5034693;28;20266;-53
2022/01/02 05:12:49;;;;;;;29.43;6.20;;;;;;;;;;5029014;28;20568;-53
2022/01/02 05:15:15;;;;;;;21.37;4.73;;;;;;;;;;5031634;28;20183;-53
2022/01/02 05:17:41;;;;;;;40.40;8.20;;;;;;;;;;5034890;28;20547;-54
2022/01/02 05:20:07;;;;;;;43.93;9.07;;;;;;;;;;5015662;28;20184;-53
2022/01/02 05:22:33;;;;;;;28.90;6.10;;;;;;;;;;5034630;28;20213;-53
2022/01/02 05:24:59;;;;;;;29.80;6.27;;;;;;;;;;5032298;28;20259;-53
2022/01/02 05:27:25;;;;;;;53.17;10.83;;;;;;;;;;5031466;28;22261;-53
2022/01/02 05:29:51;;;;;;;33.30;6.93;;;;;;;;;;5034668;28;20587;-53
2022/01/02 05:32:17;;;;;;;40.80;8.50;;;;;;;;;;5037634;28;20214;-53
2022/01/02 05:34:43;;;;;;;21.70;4.57;;;;;;;;;;5028900;28;20192;-53
2022/01/02 05:37:08;;;;;;;51.37;10.57;;;;;;;;;;5034215;28;20190;-53
2022/01/02 05:39:34;;;;;;;31.70;6.63;;;;;;;;;;5033618;28;20186;-53
2022/01/02 05:42:00;;;;;;;81.47;16.33;;;;;;;;;;5027186;28;20435;-54
2022/01/02 05:44:26;;;;;;;27.07;5.73;;;;;;;;;;5034184;28;20192;-53
2022/01/02 05:46:53;;;;;;;23.80;5.13;;;;;;;;;;5031888;28;20262;-53
2022/01/02 05:49:19;;;;;;;27.60;5.87;;;;;;;;;;5030548;28;20208;-53
2022/01/02 05:51:45;;;;;;;28.33;6.07;;;;;;;;;;5035910;28;20247;-53
2022/01/02 05:54:11;;;;;;;43.53;9.00;;;;;;;;;;5032555;28;20595;-53
2022/01/02 05:56:37;;;;;;;38.97;8.13;;;;;;;;;;5033695;28;20194;-53
2022/01/02 05:59:04;;;;;;;42.57;8.87;;;;;;;;;;5023828;28;20184;-53
2022/01/02 06:01:30;;;;;;;35.77;7.30;;;;;;;;;;5030957;28;20667;-53
2022/01/02 06:03:56;;;;;;;13.60;3.13;;;;;;;;;;5025386;28;20272;-53
2022/01/02 06:06:22;;;;;;;46.27;9.33;;;;;;;;;;5037540;28;20176;-53
2022/01/02 06:08:48;;;;;;;29.10;6.07;;;;;;;;;;5032332;28;20184;-51
2022/01/02 06:11:14;;;;;;;50.43;10.30;;;;;;;;;;5029348;28;20757;-51
2022/01/02 06:13:40;;;;;;;35.20;7.40;;;;;;;;;;5029312;28;20425;-51
2022/01/02 06:16:07;;;;;;;27.30;5.87;;;;;;;;;;5042583;28;20187;-51
2022/01/02 06:18:33;;;;;;;50.93;10.43;;;;;;;;;;5007539;28;20211;-51
2022/01/02 06:20:59;;;;;;;31.67;6.70;;;;;;;;;;5035147;28;20668;-51
2022/01/02 06:23:25;;;;;;;39.23;8.23;;;;;;;;;;5037157;28;20540;-51
2022/01/02 06:25:51;;;;;;;32.47;6.87;;;;;;;;;;5036449;28;20191;-51
2022/01/02 06:28:17;;;;;;;28.43;6.20;;;;;;;;;;5032123;28;20520;-51
2022/01/02 06:30:43;;;;;;;47.20;9.73;;;;;;;;;;5033850;28;20212;-51
2022/01/02 06:33:09;;;;;;;58.23;11.90;;;;;;;;;;5034149;28;20200;-51
2022/01/02 06:35:35;;;;;;;28.07;5.97;;;;;;;;;;5032837;28;20225;-51
2022/01/02 06:38:10;;;;;;;64.50;13.17;;;;;;;;;;5030234;28;20189;-52
2022/01/02 06:40:36;;;;;;;32.63;6.83;;;;;;;;;;5034711;28;20282;-51
2022/01/02 06:43:02;;;;;;;42.50;8.87;;;;;;;;;;5029084;28;20719;-51
2022/01/02 06:45:29;;;;;;;34.57;7.33;;;;;;;;;;5035577;28;20184;-51
2022/01/02 06:47:55;;;;;;;50.67;10.80;;;;;;;;;;5012461;28;20556;-52
2022/01/02 06:50:21;;;;;;;47.27;9.93;;;;;;;;;;5031420;28;20264;-51
2022/01/02 06:52:47;;;;;;;33.37;6.93;;;;;;;;;;5036655;28;20286;-51
2022/01/02 06:55:13;;;;;;;30.03;6.30;;;;;;;;;;5031542;28;20274;-51
2022/01/02 06:57:39;;;;;;;49.27;10.13;;;;;;;;;;5043638;28;20215;-51
2022/01/02 07:00:06;;;;;;;43.47;9.23;;;;;;;;;;5029472;28;20184;-51
2022/01/02 07:02:32;;;;;;;32.57;6.90;;;;;;;;;;5031624;28;20236;-51
2022/01/02 07:04:58;;;;;;;58.70;12.07;;;;;;;;;;5034513;28;20180;-51
2022/01/02 07:07:24;;;;;;;27.07;5.73;;;;;;;;;;5037801;28;20175;-51
2022/01/02 07:09:50;;;;;;;14.70;3.60;;;;;;;;;;5033558;28;20184;-51
2022/01/02 07:12:16;;;;;;;42.47;8.97;;;;;;;;;;5031297;28;20360;-52
2022/01/02 07:14:42;;;;;;;35.73;7.50;;;;;;;;;;5035770;28;20745;-51
2022/01/02 07:17:08;;;;;;;72.80;15.03;;;;;;;;;;5037231;28;20251;-51
2022/01/02 07:19:34;;;;;;;33.73;7.23;;;;;;;;;;5028243;28;20180;-51
2022/01/02 07:22:00;;;;;;;25.23;5.60;;;;;;;;;;5037822;28;20578;-51
2022/01/02 07:24:27;;;;;;;79.93;16.50;;;;;;;;;;5033822;28;20365;-51
2022/01/02 07:26:53;;;;;;;28.47;5.77;;;;;;;;;;5035573;28;20187;-50
2022/01/02 07:29:19;;;;;;;55.77;11.50;;;;;;;;;;5031040;28;20191;-50
2022/01/02 07:31:45;;;;;;;48.40;10.17;;;;;;;;;;5035178;28;20204;-50
2022/01/02 07:34:11;;;;;;;24.67;5.43;;;;;;;;;;5035114;28;20185;-50
2022/01/02 07:36:44;;;;;;;38.93;8.13;;;;;;;;;;5032849;28;20617;-50
2022/01/02 07:39:10;;;;;;;82.17;16.60;;;;;;;;;;5011549;28;20238;-51
2022/01/02 07:41:36;;;;;;;42.00;8.93;;;;;;;;;;5029858;28;20679;-50
2022/01/02 07:44:03;;;;;;;57.37;11.57;;;;;;;;;;5034454;28;20295;-51
2022/01/02 07:46:30;;;;;;;75.73;15.07;;;;;;;;;;5031944;28;20268;-50
2022/01/02 07:48:56;;;;;;;32.67;7.10;;;;;;;;;;5027125;28;20648;-50
2022/01/02 07:51:47;;;;;;;23.17;4.90;;;;;;;;;;5028378;28;20562;-50
2022/01/02 07:54:13;;;;;;;78.80;15.83;;;;;;;;;;5013683;28;20198;-50
2022/01/02 07:56:40;;;;;;;35.83;7.47;;;;;;;;;;5033969;28;20594;-50
2022/01/02 07:59:06;;;;;;;40.77;8.40;;;;;;;;;;5033321;28;20267;-50
2022/01/02 08:01:32;;;;;;;79.10;16.13;;;;;;;;;;5022249;28;20853;-50
2022/01/02 08:03:58;;;;;;;55.30;11.23;;;;;;;;;;5025176;28;20211;-50
2022/01/02 08:06:24;;;;;;;47.83;9.73;;;;;;;;;;5031748;28;20191;-50
2022/01/02 08:08:50;;;;;;;77.33;15.73;;;;;;;;;;5027980;28;20184;-53
2022/01/02 08:11:17;;;;;;;46.47;9.67;;;;;;;;;;5033922;28;20268;-53
2022/01/02 08:13:43;;;;;;;33.57;7.23;;;;;;;;;;5027372;28;20207;-53
2022/01/02 08:16:09;;;;;;;46.03;9.53;;;;;;;;;;5035468;28;20544;-53
2022/01/02 08:18:35;;;;;;;71.60;14.23;;;;;;;;;;5017887;28;20192;-53
2022/01/02 08:21:01;;;;;;;34.87;7.47;;;;;;;;;;5024051;28;20196;-54
2022/01/02 08:23:27;;;;;;;67.90;13.73;;;;;;;;;;5013167;28;20411;-55
2022/01/02 08:25:53;;;;;;;49.63;10.20;;;;;;;;;;5026749;28;20556;-55
2022/01/02 08:28:19;;;;;;;42.83;8.93;;;;;;;;;;5024814;28;20583;-53
2022/01/02 08:30:47;;;;;;;103.20;20.47;;;;;;;;;;5031506;28;20219;-55
2022/01/02 08:33:13;;;;;;;35.77;7.53;;;;;;;;;;5030881;28;20192;-54
2022/01/02 08:35:39;;;;;;;31.83;6.87;;;;;;;;;;5029453;28;20206;-54
2022/01/02 08:38:05;;;;;;;45.60;9.40;;;;;;;;;;5025992;28;20668;-54
2022/01/02 08:40:31;;;;;;;40.63;8.43;;;;;;;;;;5024598;28;20180;-55
2022/01/02 08:42:57;;;;;;;144.73;27.53;;;;;;;;;;5027314;28;20618;-55
2022/01/02 08:45:23;;;;;;;70.50;13.73;;;;;;;;;;5028935;28;20184;-55
2022/01/02 08:47:49;;;;;;;65.47;13.20;;;;;;;;;;5028177;28;20191;-54
2022/01/02 08:50:16;;;;;;;78.27;15.33;;;;;;;;;;5026387;28;20180;-55
2022/01/02 08:52:41;;;;;;;80.47;15.83;;;;;;;;;;5028253;28;20220;-55
2022/01/02 08:55:07;;;;;;;67.77;13.33;;;;;;;;;;5020638;28;20683;-55
2022/01/02 08:57:33;;;;;;;48.03;9.50;;;;;;;;;;5021136;28;20787;-56
2022/01/02 08:59:59;;;;;;;91.53;17.57;;;;;;;;;;5029290;28;20226;-53
2022/01/02 09:02:25;;;;;;;87.00;16.90;;;;;;;;;;5023344;28;20215;-54
2022/01/02 09:04:51;;;;;;;31.87;6.40;;;;;;;;;;5020123;28;20267;-54
2022/01/02 09:07:17;;;;;;;62.57;12.47;;;;;;;;;;5025985;28;20192;-54
2022/01/02 09:09:43;;;;;;;33.70;7.03;;;;;;;;;;5030213;28;20222;-51
2022/01/02 09:12:12;;;;;;;32.80;6.87;;;;;;;;;;5031519;28;20649;-52
2022/01/02 09:14:38;;;;;;;34.73;7.10;;;;;;;;;;5028634;28;20184;-52
2022/01/02 09:17:04;;;;;;;41.90;8.60;;;;;;;;;;5027902;28;20176;-51
2022/01/02 09:19:30;;;;;;;43.87;9.20;;;;;;;;;;5016214;28;20218;-53
2022/01/02 09:21:55;;;;;;;66.20;13.43;;;;;;;;;;5031820;28;20211;-52
2022/01/02 09:24:21;;;;;;;31.90;7.03;;;;;;;;;;5030165;28;20245;-52
2022/01/02 09:26:47;;;;;;;37.50;7.87;;;;;;;;;;5025159;28;20195;-53
2022/01/02 09:29:13;;;;;;;56.07;11.63;;;;;;;;;;5016998;28;20194;-52
2022/01/02 09:31:40;;;;;;;50.13;10.57;;;;;;;;;;5028955;28;20215;-54
2022/01/02 09:34:06;;;;;;;28.70;6.33;;;;;;;;;;5028766;28;20180;-53
2022/01/02 09:36:32;;;;;;;42.50;8.83;;;;;;;;;;5029809;28;20184;-53
2022/01/02 09:38:58;;;;;;;38.80;8.13;;;;;;;;;;5030300;28;20183;-55
2022/01/02 09:41:24;;;;;;;40.00;10.00;;;;;;;;;;5057438;22;20241;-68
2022/01/02 09:43:50;;;;;;;29.83;8.53;;;;;;;;;;5038735;28;20241;-68
2022/01/02 09:46:23;;;;;;;43.87;10.27;;;;;;;;;;5029875;28;20194;-69
2022/01/02 09:48:50;;;;;;;39.80;10.00;;;;;;;;;;5030156;28;20233;-68
2022/01/02 09:51:17;;;;;;;23.60;7.03;;;;;;;;;;5038427;28;20562;-69
2022/01/02 09:53:45;;;;;;;21.23;7.53;;;;;;;;;;5030201;28;20245;-69
2022/01/02 09:56:11;;;;;;;37.80;10.50;;;;;;;;;;5039826;28;20199;-69
2022/01/02 09:58:40;;;;;;;32.87;8.70;;;;;;;;;;5034979;28;20518;-68
2022/01/02 10:01:06;;;;;;;22.63;7.00;;;;;;;;;;5039298;28;20211;-69
2022/01/02 10:03:42;;;;;;;66.43;15.13;;;;;;;;;;5022515;28;20191;-69
2022/01/02 10:06:08;;;;;;;103.07;21.70;;;;;;;;;;5025052;28;20558;-68
2022/01/02 10:08:35;;;;;;;25.93;7.53;;;;;;;;;;5024959;28;20249;-69
2022/01/02 10:11:01;;;;;;;17.47;6.20;;;;;;;;;;5040829;28;20310;-68
2022/01/02 10:13:56;;;;;;;33.60;9.20;;;;;;;;;;5039047;28;20338;-69
2022/01/02 10:16:22;;;;;;;21.50;6.83;;;;;;;;;;5031588;28;20246;-68
2022/01/02 10:18:49;;;;;;;29.20;8.23;;;;;;;;;;5035398;28;20235;-67
2022/01/02 10:21:35;;;;;;;32.77;9.10;;;;;;;;;;5038122;28;20210;-69
2022/01/02 10:24:22;;;;;;;21.40;7.10;;;;;;;;;;5042546;28;20242;-69
2022/01/02 10:27:03;;;;;;;22.00;6.90;;;;;;;;;;5044261;28;20686;-68
2022/01/02 10:29:38;;;;;;;21.47;7.27;;;;;;;;;;5042790;28;20193;-69
2022/01/02 10:32:22;;;;;;;15.37;5.60;;;;;;;;;;5042530;28;20226;-69
2022/01/02 10:34:48;;;;;;;21.87;6.90;;;;;;;;;;5042771;28;20195;-69
2022/01/02 10:37:24;;;;;;;34.27;9.57;;;;;;;;;;5038075;28;20188;-69
2022/01/02 10:39:50;;;;;;;20.10;7.10;;;;;;;;;;5044825;28;20723;-69
2022/01/02 10:42:17;;;;;;;17.57;6.57;;;;;;;;;;5035170;28;20298;-69
2022/01/02 10:44:43;;;;;;;23.30;7.60;;;;;;;;;;5034476;28;20293;-69
2022/01/02 10:47:12;;;;;;;29.27;9.00;;;;;;;;;;5048150;28;20478;-69
2022/01/02 10:49:54;;;;;;;27.47;8.37;;;;;;;;;;5054835;28;20671;-69
2022/01/02 10:52:25;;;;;;;59.13;14.00;;;;;;;;;;5054483;28;20646;-69
2022/01/02 10:54:51;;;;;;;27.07;7.90;;;;;;;;;;5034294;28;20240;-68
2022/01/02 10:57:17;;;;;;;11.10;5.17;;;;;;;;;;5043636;28;20268;-68
2022/01/02 10:59:44;;;;;;;22.63;7.30;;;;;;;;;;5045055;28;20272;-69
2022/01/02 11:02:14;;;;;;;22.57;7.57;;;;;;;;;;5040559;28;20661;-70
2022/01/02 11:04:47;;;;;;;23.67;7.67;;;;;;;;;;5040324;28;20187;-70
2022/01/02 11:07:16;;;;;;;35.33;9.70;;;;;;;;;;5037343;28;20195;-69
2022/01/02 11:09:42;;;;;;;45.33;11.83;;;;;;;;;;5032077;28;20187;-69
2022/01/02 11:12:08;;;;;;;46.50;12.07;;;;;;;;;;5036307;28;20292;-70
2022/01/02 11:14:35;;;;;;;24.07;7.63;;;;;;;;;;5039466;28;20191;-70
2022/01/02 11:17:01;;;;;;;19.80;7.20;;;;;;;;;;5033807;28;20629;-70
2022/01/02 11:19:27;;;;;;;31.70;9.63;;;;;;;;;;5050272;28;20239;-69
2022/01/02 11:21:54;;;;;;;45.00;11.90;;;;;;;;;;5031353;28;20211;-69
2022/01/02 11:24:28;;;;;;;31.13;8.67;;;;;;;;;;5030321;28;20282;-69
2022/01/02 11:26:56;;;;;;;45.53;11.63;;;;;;;;;;5034456;28;20195;-67
2022/01/02 11:29:30;;;;;;;29.07;8.67;;;;;;;;;;5037844;28;20188;-70
2022/01/02 11:31:56;;;;;;;46.87;12.50;;;;;;;;;;5033105;28;20302;-72
2022/01/02 11:34:22;;;;;;;23.03;7.73;;;;;;;;;;5032189;28;20270;-68
2022/01/02 11:36:48;;;;;;;24.30;7.80;;;;;;;;;;5035818;28;20278;-68
2022/01/02 11:39:14;;;;;;;48.20;11.93;;;;;;;;;;5030261;28;20203;-68
2022/01/02 11:41:47;;;;;;;36.23;9.63;;;;;;;;;;5033642;28;20234;-68
2022/01/02 11:44:14;;;;;;;23.13;7.70;;;;;;;;;;5035924;28;20451;-67
2022/01/02 11:47:00;;;;;;;25.87;7.67;;;;;;;;;;5038915;28;20203;-67
2022/01/02 11:49:26;;;;;;;18.97;6.50;;;;;;;;;;5034480;28;20207;-67
2022/01/02 11:51:53;;;;;;;30.57;8.87;;;;;;;;;;5042685;28;20505;-67
2022/01/02 11:54:41;;;;;;;16.77;6.60;;;;;;;;;;5042424;28;20183;-67
2022/01/02 11:57:15;;;;;;;64.83;15.53;;;;;;;;;;5030798;28;20179;-67
2022/01/02 11:59:42;;;;;;;38.10;10.47;;;;;;;;;;5028482;28;20237;-70
2022/01/02 12:02:09;;;;;;;57.37;14.27;;;;;;;;;;5032926;28;21559;-67
2022/01/02 12:04:53;;;;;;;30.27;9.03;;;;;;;;;;5031788;28;20187;-70
2022/01/02 12:07:40;;;;;;;69.90;17.00;;;;;;;;;;5018131;28;20195;-71
2022/01/02 12:10:15;;;;;;;42.20;11.37;;;;;;;;;;5039429;28;20190;-71
2022/01/02 12:12:59;;;;;;;44.20;11.83;;;;;;;;;;5036649;28;20298;-72
2022/01/02 12:15:45;;;;;;;36.90;10.37;;;;;;;;;;5028129;28;20199;-71
2022/01/02 12:18:11;;;;;;;44.03;11.83;;;;;;;;;;5025679;28;20196;-72
2022/01/02 12:20:52;;;;;;;24.10;7.90;;;;;;;;;;5035878;28;20635;-72
2022/01/02 12:23:30;;;;;;;74.70;17.47;;;;;;;;;;5035237;28;20561;-72
2022/01/02 12:26:06;;;;;;;31.00;9.13;;;;;;;;;;5030218;28;20214;-69
2022/01/02 12:28:39;;;;;;;41.70;11.00;;;;;;;;;;5027457;28;20194;-69
2022/01/02 12:31:06;;;;;;;25.97;8.07;;;;;;;;;;5032677;28;20334;-70
2022/01/02 12:33:32;;;;;;;49.97;12.63;;;;;;;;;;5037509;28;20715;-69
2022/01/02 12:36:08;;;;;;;45.60;11.90;;;;;;;;;;5032754;28;20203;-70
2022/01/02 12:38:54;;;;;;;50.53;12.97;;;;;;;;;;5033146;28;20652;-69
2022/01/02 12:41:22;;;;;;;25.83;7.97;;;;;;;;;;5040161;28;20227;-69
2022/01/02 12:44:08;;;;;;;32.20;8.93;;;;;;;;;;5027056;28;20618;-69
2022/01/02 12:46:40;;;;;;;35.87;10.03;;;;;;;;;;5037405;28;20203;-70
2022/01/02 12:49:07;;;;;;;34.83;9.93;;;;;;;;;;5037560;28;20645;-70
2022/01/02 12:51:34;;;;;;;46.47;11.93;;;;;;;;;;5035863;28;20306;-69
2022/01/02 12:54:07;;;;;;;63.57;15.33;;;;;;;;;;5022945;28;20191;-69
2022/01/02 12:56:33;;;;;;;44.47;11.83;;;;;;;;;;5053208;28;20229;-70
2022/01/02 12:59:15;;;;;;;71.17;16.43;;;;;;;;;;5028702;28;20187;-69
2022/01/02 13:01:48;;;;;;;51.40;12.87;;;;;;;;;;5035179;28;20211;-69
2022/01/02 13:04:17;;;;;;;40.33;10.77;;;;;;;;;;5032706;28;20196;-70
2022/01/02 13:06:46;;;;;;;37.30;10.03;;;;;;;;;;5036215;28;20180;-70
2022/01/02 13:09:13;;;;;;;47.57;12.03;;;;;;;;;;5025340;28;20546;-69
2022/01/02 13:11:39;;;;;;;40.70;10.90;;;;;;;;;;5036359;28;20234;-70
2022/01/02 13:14:05;;;;;;;37.70;10.13;;;;;;;;;;5031948;28;20605;-69
2022/01/02 13:16:31;;;;;;;25.67;8.00;;;;;;;;;;5026871;28;20198;-69
2022/01/02 13:18:57;;;;;;;35.70;9.80;;;;;;;;;;5036112;28;20524;-69
2022/01/02 13:21:24;;;;;;;40.03;10.60;;;;;;;;;;5030681;28;20223;-69
2022/01/02 13:23:50;;;;;;;23.57;7.60;;;;;;;;;;5037749;28;20247;-69
2022/01/02 13:26:20;;;;;;;53.60;13.67;;;;;;;;;;5029222;28;20188;-69
2022/01/02 13:28:46;;;;;;;37.47;10.23;;;;;;;;;;5032766;28;20180;-69
2022/01/02 13:31:12;;;;;;;25.60;8.23;;;;;;;;;;5036434;28;20215;-69
2022/01/02 13:33:42;;;;;;;37.03;10.37;;;;;;;;;;5038560;28;20203;-69
2022/01/02 13:36:16;;;;;;;39.77;11.43;;;;;;;;;;5030059;28;20199;-69
2022/01/02 13:38:55;;;;;;;47.93;12.73;;;;;;;;;;5026685;28;20230;-69
2022/01/02 13:41:21;;;;;;;36.20;10.23;;;;;;;;;;5036156;28;20306;-69
2022/01/02 13:43:47;;;;;;;43.80;12.00;;;;;;;;;;5036171;28;20202;-69
2022/01/02 13:46:13;;;;;;;36.37;10.17;;;;;;;;;;5038358;28;20199;-69
2022/01/02 13:48:39;;;;;;;30.67;8.93;;;;;;;;;;5033413;28;20190;-69
2022/01/02 13:51:13;;;;;;;32.30;9.20;;;;;;;;;;5038518;28;20353;-69
2022/01/02 13:53:39;;;;;;;32.93;9.53;;;;;;;;;;5027697;28;20188;-69
2022/01/02 13:56:05;;;;;;;45.17;12.07;;;;;;;;;;5030985;28;20183;-70
2022/01/02 13:58:33;;;;;;;19.37;6.83;;;;;;;;;;5040366;28;20172;-70
2022/01/02 14:01:00;;;;;;;27.73;8.50;;;;;;;;;;5037810;28;20213;-70
2022/01/02 14:03:27;;;;;;;53.83;13.50;;;;;;;;;;5036270;28;20190;-70
2022/01/02 14:05:53;;;;;;;32.93;9.47;;;;;;;;;;5043045;28;20191;-69
2022/01/02 14:08:20;;;;;;;34.93;9.90;;;;;;;;;;5033960;28;20195;-70
2022/01/02 14:10:46;;;;;;;23.83;7.90;;;;;;;;;;5038223;28;20244;-69
2022/01/02 14:13:15;;;;;;;34.07;9.43;;;;;;;;;;5042066;28;20195;-69
2022/01/02 14:15:41;;;;;;;32.07;9.17;;;;;;;;;;5029630;28;20260;-69
2022/01/02 14:18:07;;;;;;;81.50;18.27;;;;;;;;;;5030197;28;20184;-69
2022/01/02 14:20:35;;;;;;;269.10;54.07;;;;;;;;;;5020685;28;20738;-69
2022/01/02 14:23:04;;;;;;;49.33;12.00;;;;;;;;;;5018503;28;20358;-70
2022/01/02 14:25:30;;;;;;;35.60;9.30;;;;;;;;;;5038902;28;20292;-69
2022/01/02 14:27:56;;;;;;;42.83;10.80;;;;;;;;;;5041685;28;20330;-70
2022/01/02 14:30:22;;;;;;;38.97;10.07;;;;;;;;;;5040233;28;20543;-70
2022/01/02 14:32:48;;;;;;;40.77;10.33;;;;;;;;;;5029969;28;20216;-70
2022/01/02 14:35:15;;;;;;;38.63;10.07;;;;;;;;;;5031390;28;20248;-70
2022/01/02 14:37:42;;;;;;;46.67;11.30;;;;;;;;;;5033294;28;20187;-70